Time;durP1;ratioP1;P1;durP2;ratioP2;P2;SDS_P1;SDS_P2;PMS_P1;PMS_P2;Temp;Humidity;BMP_temperature;BMP_pressure;BME280_temperature;BME280_humidity;BME280_pressure;Samples;Min_cycle;Max_cycle;Signal;HPM_P1;HPM_P2
2021/05/01 00:02:13;;;;;;;21.10;11.90;;;;;;;10.85;100.00;99697.05;1625203;87;21107;-74
2021/05/01 00:04:42;;;;;;;17.42;11.45;;;;;;;10.83;100.00;99699.36;1677766;85;21143;-73
2021/05/01 00:07:09;;;;;;;18.00;12.47;;;;;;;10.78;100.00;99696.09;1677780;85;22873;-73
2021/05/01 00:09:39;;;;;;;14.35;9.70;;;;;;;10.70;100.00;99693.34;1677662;85;21234;-73
2021/05/01 00:14:17;;;;;;;16.02;10.45;;;;;;;10.66;100.00;99703.60;1775045;79;28338;-72
2021/05/01 00:16:47;;;;;;;15.15;10.28;;;;;;;10.57;100.00;99706.64;1747481;82;21191;-73
2021/05/01 00:19:15;;;;;;;20.43;13.45;;;;;;;10.55;100.00;99705.00;1747423;82;21363;-73
2021/05/01 00:21:42;;;;;;;18.00;12.40;;;;;;;10.50;100.00;99706.52;1732741;82;21677;-72
2021/05/01 00:24:11;;;;;;;18.07;11.30;;;;;;;10.45;100.00;99695.34;1717875;83;21673;-73
2021/05/01 00:26:40;;;;;;;17.40;12.68;;;;;;;10.41;100.00;99700.33;1717718;83;21187;-73
2021/05/01 00:29:10;;;;;;;25.90;12.93;;;;;;;10.35;100.00;99698.80;1718062;83;21179;-73
2021/05/01 00:31:38;;;;;;;19.07;12.47;;;;;;;10.32;100.00;99705.53;1717970;83;21842;-74
2021/05/01 00:34:06;;;;;;;18.98;11.95;;;;;;;10.25;100.00;99715.89;1717826;82;21179;-73
2021/05/01 00:36:34;;;;;;;18.20;12.45;;;;;;;10.14;100.00;99708.44;1717956;83;21647;-73
2021/05/01 00:39:05;;;;;;;17.77;12.33;;;;;;;10.04;100.00;99711.07;1717594;83;21206;-72
2021/05/01 00:41:33;;;;;;;20.32;12.37;;;;;;;9.97;100.00;99709.61;1717961;83;21199;-73
2021/05/01 00:44:07;;;;;;;15.98;10.55;;;;;;;9.92;100.00;99712.90;1717713;83;21387;-76
2021/05/01 00:46:35;;;;;;;13.08;9.10;;;;;;;9.82;100.00;99715.91;1718056;83;21622;-76
2021/05/01 00:49:04;;;;;;;13.43;8.00;;;;;;;9.75;100.00;99720.14;1717820;83;21603;-78
2021/05/01 00:51:32;;;;;;;13.10;9.80;;;;;;;9.67;100.00;99729.66;1717719;83;21183;-78
2021/05/01 00:54:00;;;;;;;13.05;8.55;;;;;;;9.60;100.00;99730.82;1717795;83;21202;-79
2021/05/01 00:56:30;;;;;;;11.60;8.95;;;;;;;9.53;100.00;99727.57;1717771;82;21211;-77
2021/05/01 00:58:58;;;;;;;14.68;9.78;;;;;;;9.47;100.00;99728.27;1717827;83;21754;-79
2021/05/01 01:01:27;;;;;;;28.92;10.58;;;;;;;9.42;100.00;99732.39;1717806;83;21198;-77
2021/05/01 01:03:55;;;;;;;53.40;15.88;;;;;;;9.36;100.00;99728.23;1717713;83;21635;-74
2021/05/01 01:06:23;;;;;;;60.17;15.95;;;;;;;9.32;100.00;99729.27;1717801;83;21195;-74
2021/05/01 01:08:52;;;;;;;59.25;16.10;;;;;;;9.23;100.00;99733.55;1717693;83;21616;-74
2021/05/01 01:11:20;;;;;;;40.98;14.33;;;;;;;9.13;100.00;99730.86;1717703;83;21183;-74
2021/05/01 01:13:51;;;;;;;51.65;15.98;;;;;;;9.09;100.00;99731.88;1708894;83;21203;-76
2021/05/01 01:16:20;;;;;;;;;;;;;;;9.05;100.00;99730.30;1707666;84;21172;-76
2021/05/01 01:18:49;;;;;;;40.80;13.90;;;;;;;9.01;100.00;99737.42;1705100;84;20267;-74
2021/05/01 01:21:18;;;;;;;50.75;15.88;;;;;;;8.95;100.00;99741.15;1704957;82;21377;-74
2021/05/01 01:23:47;;;;;;;33.58;13.65;;;;;;;8.89;100.00;99750.55;1684682;84;21269;-74
2021/05/01 01:26:15;;;;;;;21.48;12.33;;;;;;;8.83;100.00;99742.88;1702959;84;21208;-73
2021/05/01 01:28:43;;;;;;;21.17;13.72;;;;;;;8.78;100.00;99745.67;1703080;84;21199;-74
2021/05/01 01:31:11;;;;;;;16.37;10.80;;;;;;;8.72;100.00;99752.91;1703083;84;21227;-75
2021/05/01 01:33:40;;;;;;;16.55;11.53;;;;;;;8.65;100.00;99755.35;1700096;84;21377;-76
2021/05/01 01:36:08;;;;;;;16.32;10.10;;;;;;;8.60;100.00;99758.14;1690375;84;21189;-75
2021/05/01 01:38:36;;;;;;;16.50;9.63;;;;;;;8.53;100.00;99761.42;1690482;84;21217;-73
2021/05/01 01:41:07;;;;;;;15.38;11.48;;;;;;;8.49;100.00;99769.03;1690536;84;21174;-74
2021/05/01 01:43:37;;;;;;;17.37;11.53;;;;;;;8.44;100.00;99768.30;1690474;83;21672;-73
2021/05/01 01:46:06;;;;;;;20.70;13.18;;;;;;;8.40;100.00;99769.34;1690510;84;22224;-74
2021/05/01 01:48:34;;;;;;;22.62;14.70;;;;;;;8.39;100.00;99767.58;1690474;84;21197;-74
2021/05/01 01:51:02;;;;;;;21.02;13.40;;;;;;;8.38;100.00;99776.38;1690292;84;21181;-73
2021/05/01 01:53:32;;;;;;;22.60;13.60;;;;;;;8.36;100.00;99770.31;1690437;84;21265;-71
2021/05/01 01:56:00;;;;;;;19.77;13.28;;;;;;;8.32;100.00;99779.19;1690266;84;21180;-74
2021/05/01 01:58:28;;;;;;;18.95;13.75;;;;;;;8.30;100.00;99777.06;1690474;84;21409;-74
2021/05/01 02:00:56;;;;;;;23.42;13.22;;;;;;;8.27;100.00;99781.12;1690468;84;21245;-74
2021/05/01 02:03:24;;;;;;;21.62;13.68;;;;;;;8.26;100.00;99789.88;1690378;84;21189;-74
2021/05/01 02:05:52;;;;;;;20.00;12.65;;;;;;;8.21;100.00;99790.03;1690180;83;21213;-73
2021/05/01 02:08:20;;;;;;;19.10;11.30;;;;;;;8.16;100.00;99791.95;1690494;84;21185;-74
2021/05/01 02:10:48;;;;;;;18.20;11.93;;;;;;;8.12;100.00;99797.77;1690188;84;21874;-73
2021/05/01 02:13:17;;;;;;;26.27;12.13;;;;;;;8.08;100.00;99800.08;1694664;83;21209;-73
2021/05/01 02:15:45;;;;;;;16.23;10.63;;;;;;;8.04;100.00;99798.45;1667208;84;21165;-76
2021/05/01 02:18:13;;;;;;;19.40;10.35;;;;;;;7.99;100.00;99800.37;1706217;84;21237;-75
2021/05/01 02:20:43;;;;;;;12.55;8.65;;;;;;;7.94;100.00;99804.91;1667199;86;21206;-75
2021/05/01 02:23:11;;;;;;;19.70;11.03;;;;;;;7.90;100.00;99817.70;1706444;83;22285;-75
2021/05/01 02:25:39;;;;;;;18.37;10.15;;;;;;;7.85;100.00;99814.38;1706055;83;21240;-76
2021/05/01 02:28:07;;;;;;;20.45;12.05;;;;;;;7.80;100.00;99816.25;1717309;83;21245;-74
2021/05/01 02:30:35;;;;;;;16.85;11.43;;;;;;;7.76;100.00;99815.05;1718212;83;21167;-74
2021/05/01 02:33:04;;;;;;;17.92;10.88;;;;;;;7.73;100.00;99815.15;1718099;83;21183;-74
2021/05/01 02:35:34;;;;;;;18.32;10.00;;;;;;;7.69;100.00;99814.83;1718031;83;21297;-74
2021/05/01 02:38:03;;;;;;;16.93;10.85;;;;;;;7.66;100.00;99817.55;1718066;83;21199;-74
2021/05/01 02:40:36;;;;;;;21.35;11.83;;;;;;;7.63;100.00;99820.70;1717961;83;21183;-74
2021/05/01 02:43:08;;;;;;;18.57;10.70;;;;;;;7.59;100.00;99817.30;1717889;83;21163;-74
2021/05/01 02:45:37;;;;;;;14.38;8.73;;;;;;;7.58;100.00;99813.44;1718173;83;22311;-74
2021/05/01 02:48:09;;;;;;;13.68;8.15;;;;;;;7.56;100.00;99818.25;1718086;83;21208;-73
2021/05/01 02:50:38;;;;;;;13.30;8.93;;;;;;;7.54;100.00;99821.83;1717897;83;21195;-73
2021/05/01 02:53:06;;;;;;;20.08;10.82;;;;;;;7.52;100.00;99817.08;1717849;83;21187;-73
2021/05/01 02:55:35;;;;;;;21.27;11.53;;;;;;;7.51;100.00;99824.55;1717957;83;21237;-73
2021/05/01 02:58:03;;;;;;;24.07;12.63;;;;;;;7.51;100.00;99824.55;1717795;83;21207;-72
2021/05/01 03:00:30;;;;;;;19.70;12.07;;;;;;;7.53;100.00;99827.98;1717746;83;21825;-73
2021/05/01 03:02:58;;;;;;;39.00;15.32;;;;;;;7.52;100.00;99824.52;1716341;83;21207;-72
2021/05/01 03:05:26;;;;;;;50.40;16.70;;;;;;;7.54;100.00;99828.38;1716403;83;21199;-73
2021/05/01 03:07:56;;;;;;;73.17;18.10;;;;;;;7.54;100.00;99827.07;1716381;83;21155;-72
2021/05/01 03:10:26;;;;;;;69.67;17.48;;;;;;;7.56;100.00;99838.37;1716443;83;21197;-72
2021/05/01 03:12:54;;;;;;;51.13;18.45;;;;;;;7.59;100.00;99840.03;1716475;83;21308;-74
2021/05/01 03:15:22;;;;;;;55.10;16.97;;;;;;;7.63;100.00;99841.21;1716413;83;21280;-75
2021/05/01 03:17:50;;;;;;;44.30;19.73;;;;;;;7.69;100.00;99842.34;1716391;83;21207;-74
2021/05/01 03:20:19;;;;;;;68.20;18.27;;;;;;;7.78;100.00;99847.31;1716467;83;21219;-75
2021/05/01 03:22:47;;;;;;;74.03;20.32;;;;;;;7.91;100.00;99851.75;1716376;83;21175;-74
2021/05/01 03:25:17;;;;;;;66.00;18.23;;;;;;;8.04;100.00;99856.61;1717993;83;21444;-74
2021/05/01 03:27:45;;;;;;;84.75;20.65;;;;;;;8.19;100.00;99858.30;1696518;83;21258;-75
2021/05/01 03:30:18;;;;;;;50.73;16.73;;;;;;;8.34;100.00;99857.41;1689907;84;21215;-73
2021/05/01 03:32:46;;;;;;;39.98;17.05;;;;;;;8.54;100.00;99855.48;1689635;84;21182;-75
2021/05/01 03:35:15;;;;;;;41.80;16.50;;;;;;;8.74;100.00;99856.11;1689885;84;21211;-75
2021/05/01 03:37:43;;;;;;;53.15;17.25;;;;;;;8.91;100.00;99857.72;1688987;84;21470;-74
2021/05/01 03:40:13;;;;;;;29.40;17.30;;;;;;;9.12;100.00;99867.08;1689294;84;21646;-75
2021/05/01 03:42:41;;;;;;;34.80;18.85;;;;;;;9.44;100.00;99873.34;1689233;84;21683;-75
2021/05/01 03:45:10;;;;;;;28.77;17.05;;;;;;;9.85;100.00;99873.58;1699588;83;21639;-76
2021/05/01 03:47:39;;;;;;;25.37;15.00;;;;;;;10.29;100.00;99870.16;1703071;83;21221;-74
2021/05/01 03:50:08;;;;;;;23.32;14.00;;;;;;;10.81;100.00;99869.78;1701704;83;22707;-77
2021/05/01 03:52:36;;;;;;;22.80;14.25;;;;;;;11.29;99.03;99880.46;1689164;84;21215;-78
2021/05/01 03:55:07;;;;;;;22.00;14.43;;;;;;;11.72;98.11;99872.80;1693440;83;21146;-78
2021/05/01 03:57:39;;;;;;;21.25;14.15;;;;;;;12.17;96.92;99881.34;1702789;83;21174;-77
2021/05/01 04:00:08;;;;;;;28.20;13.88;;;;;;;12.59;95.66;99874.89;1702905;83;21183;-78
2021/05/01 04:02:36;;;;;;;19.20;13.90;;;;;;;12.98;94.70;99869.86;1717920;83;21378;-77
2021/05/01 04:05:06;;;;;;;22.17;13.28;;;;;;;13.43;93.52;99877.23;1701834;83;21757;-77
2021/05/01 04:07:35;;;;;;;;;;;;;;;13.92;91.80;99880.35;1711849;83;21143;-77
2021/05/01 04:10:05;;;;;;;17.25;10.68;;;;;;;14.34;88.72;99885.99;1717939;83;20298;-77
2021/05/01 04:12:32;;;;;;;18.98;12.37;;;;;;;14.74;86.56;99889.88;1696814;83;21219;-78
2021/05/01 04:15:00;;;;;;;16.12;10.50;;;;;;;15.14;84.39;99888.88;1681406;84;21358;-77
2021/05/01 04:17:28;;;;;;;19.92;12.80;;;;;;;15.54;82.12;99893.08;1682268;84;21695;-78
2021/05/01 04:19:57;;;;;;;17.07;12.45;;;;;;;15.87;80.07;99895.49;1694047;84;21167;-78
2021/05/01 04:22:25;;;;;;;21.33;14.00;;;;;;;16.22;79.00;99900.82;1704409;84;21198;-77
2021/05/01 04:24:53;;;;;;;19.87;12.43;;;;;;;16.56;78.38;99897.71;1703954;84;21199;-77
2021/05/01 04:27:22;;;;;;;19.12;13.62;;;;;;;16.92;75.38;99905.55;1688978;84;21340;-78
2021/05/01 04:29:50;;;;;;;20.65;13.40;;;;;;;17.29;74.77;99895.07;1685958;84;21228;-78
2021/05/01 04:32:18;;;;;;;18.92;13.53;;;;;;;17.55;72.51;99903.05;1694133;84;21124;-77
2021/05/01 04:34:46;;;;;;;15.00;11.90;;;;;;;17.80;71.53;99897.71;1687571;84;21155;-78
2021/05/01 04:37:14;;;;;;;19.05;12.90;;;;;;;18.16;71.34;99903.23;1702230;83;21156;-79
2021/05/01 04:39:42;;;;;;;17.23;12.10;;;;;;;18.53;69.72;99903.22;1705165;84;21294;-80
2021/05/01 04:42:12;;;;;;;16.75;11.50;;;;;;;18.88;68.17;99907.28;1704504;84;21243;-78
2021/05/01 04:44:40;;;;;;;15.20;11.00;;;;;;;19.21;66.73;99905.22;1692823;83;21227;-78
2021/05/01 04:47:08;;;;;;;14.87;10.63;;;;;;;19.48;64.71;99898.70;1693322;84;21183;-82
2021/05/01 04:49:40;;;;;;;17.60;11.00;;;;;;;19.70;63.90;99896.58;1680085;84;22172;-76
2021/05/01 04:52:09;;;;;;;14.68;11.45;;;;;;;19.96;62.73;99895.84;1687360;84;21427;-74
2021/05/01 04:54:36;;;;;;;15.15;11.03;;;;;;;20.13;61.04;99901.19;1691672;83;21184;-76
2021/05/01 04:57:06;;;;;;;14.87;10.98;;;;;;;20.25;60.19;99890.83;1678683;84;21572;-75
2021/05/01 04:59:35;;;;;;;17.92;11.75;;;;;;;20.38;59.90;99903.19;1696574;84;21195;-74
2021/05/01 05:02:04;;;;;;;15.85;11.30;;;;;;;20.54;59.65;99903.63;1691686;84;21155;-76
2021/05/01 05:04:32;;;;;;;15.18;11.28;;;;;;;20.79;59.19;99896.28;1690253;84;21430;-77
2021/05/01 05:07:00;;;;;;;14.58;10.98;;;;;;;21.06;58.21;99890.45;1697142;84;21226;-75
2021/05/01 05:09:28;;;;;;;15.53;11.12;;;;;;;21.30;57.20;99887.49;1683324;83;21164;-80
2021/05/01 05:11:56;;;;;;;15.38;11.55;;;;;;;21.53;56.33;99885.55;1693619;83;21665;-80
2021/05/01 05:14:24;;;;;;;18.07;11.50;;;;;;;21.78;56.08;99878.89;1705222;83;21211;-79
2021/05/01 05:16:52;;;;;;;15.00;10.70;;;;;;;22.12;54.95;99879.94;1704546;84;21385;-81
2021/05/01 05:19:19;;;;;;;16.32;10.88;;;;;;;22.47;54.07;99878.12;1704642;84;21361;-80
2021/05/01 05:21:48;;;;;;;17.65;10.68;;;;;;;22.75;52.19;99887.20;1695040;84;21687;-81
2021/05/01 05:24:16;;;;;;;17.15;10.72;;;;;;;22.94;51.92;99886.34;1697176;84;21199;-80
2021/05/01 05:26:45;;;;;;;20.08;10.25;;;;;;;23.14;50.40;99886.34;1678770;84;21175;-80
2021/05/01 05:29:15;;;;;;;13.62;10.65;;;;;;;23.24;49.60;99885.85;1678773;85;21319;-80
2021/05/01 05:31:44;;;;;;;12.28;10.13;;;;;;;23.20;49.44;99883.93;1684264;84;21713;-79
2021/05/01 05:34:12;;;;;;;13.30;9.98;;;;;;;23.25;49.73;99889.71;1690526;84;21169;-80
2021/05/01 05:36:40;;;;;;;13.78;9.80;;;;;;;23.49;49.74;99883.03;1681225;84;21477;-78
2021/05/01 05:39:08;;;;;;;15.58;11.20;;;;;;;23.84;48.90;99884.20;1685934;84;21176;-78
2021/05/01 05:41:36;;;;;;;14.18;10.15;;;;;;;24.18;48.37;99879.55;1685919;84;21215;-78
2021/05/01 05:44:05;;;;;;;13.43;10.43;;;;;;;24.52;47.02;99887.88;1690031;84;21204;-80
2021/05/01 05:46:33;;;;;;;12.05;9.03;;;;;;;24.80;46.31;99883.77;1703116;84;21236;-79
2021/05/01 05:49:02;;;;;;;17.05;9.50;;;;;;;24.92;45.62;99875.81;1678806;85;21188;-78
2021/05/01 05:51:32;;;;;;;15.10;9.43;;;;;;;25.07;44.79;99882.81;1678786;85;21243;-80
2021/05/01 05:54:00;;;;;;;14.98;10.13;;;;;;;25.15;43.52;99876.16;1678665;85;21796;-80
2021/05/01 05:56:28;;;;;;;12.63;9.08;;;;;;;25.09;43.50;99880.30;1697043;84;21164;-79
2021/05/01 05:58:56;;;;;;;12.28;8.88;;;;;;;25.11;43.81;99882.34;1693841;84;21144;-80
2021/05/01 06:01:26;;;;;;;11.57;9.15;;;;;;;25.28;42.68;99883.37;1691983;84;21313;-80
2021/05/01 06:03:55;;;;;;;15.72;9.80;;;;;;;25.46;42.51;99875.72;1681276;83;21650;-79
2021/05/01 06:06:35;;;;;;;15.08;9.18;;;;;;;25.33;41.83;99881.03;1697545;83;22227;-80
2021/05/01 06:09:03;;;;;;;13.68;8.63;;;;;;;25.26;42.63;99888.55;1687331;84;21674;-80
2021/05/01 06:11:32;;;;;;;13.62;9.40;;;;;;;25.49;42.27;99896.95;1693286;84;21187;-79
2021/05/01 06:14:03;;;;;;;15.70;10.08;;;;;;;25.67;42.37;99900.44;1701405;84;21235;-79
2021/05/01 06:16:31;;;;;;;13.00;8.93;;;;;;;25.80;42.40;99901.87;1718244;83;21183;-79
2021/05/01 06:19:01;;;;;;;13.65;9.33;;;;;;;25.80;42.11;99896.47;1718230;83;21358;-80
2021/05/01 06:21:29;;;;;;;13.30;9.68;;;;;;;25.75;42.02;99898.30;1713300;82;21195;-79
2021/05/01 06:23:57;;;;;;;13.70;8.73;;;;;;;25.85;42.10;99889.58;1715907;83;21155;-80
2021/05/01 06:26:26;;;;;;;22.13;9.95;;;;;;;26.08;40.97;99884.98;1711719;83;21159;-78
2021/05/01 06:28:54;;;;;;;11.22;9.48;;;;;;;26.04;41.01;99891.71;1692915;83;21590;-80
2021/05/01 06:31:23;;;;;;;13.25;10.38;;;;;;;25.97;41.88;99891.52;1702257;83;22069;-79
2021/05/01 06:33:52;;;;;;;14.55;10.28;;;;;;;25.99;41.46;99892.20;1701539;83;21143;-79
2021/05/01 06:36:24;;;;;;;13.22;9.60;;;;;;;26.02;41.69;99895.95;1697301;83;21238;-79
2021/05/01 06:38:57;;;;;;;15.03;9.00;;;;;;;26.12;41.15;99899.34;1683243;83;21214;-77
2021/05/01 06:41:22;;;;;;;19.57;10.40;;;;;;;26.28;39.53;99911.22;1710379;83;21227;-79
2021/05/01 06:46:43;;;;;;;14.23;11.20;;;;;;;26.49;38.64;99910.25;1822411;78;22758;-84
2021/05/01 06:49:15;;;;;;;14.70;9.43;;;;;;;26.44;38.48;99909.91;1682383;82;21156;-79
2021/05/01 06:51:43;;;;;;;13.30;9.33;;;;;;;26.33;38.87;99916.45;1724564;82;21362;-79
2021/05/01 06:54:11;;;;;;;13.93;9.30;;;;;;;26.34;39.34;99914.59;1736013;81;21176;-81
2021/05/01 06:56:42;;;;;;;11.60;8.48;;;;;;;26.57;38.58;99917.07;1728850;81;21655;-78
2021/05/01 06:59:10;;;;;;;16.02;9.33;;;;;;;26.82;37.72;99918.44;1741199;81;21151;-74
2021/05/01 07:01:40;;;;;;;12.88;9.58;;;;;;;26.81;37.76;99918.11;1736726;81;21164;-77
2021/05/01 07:04:09;;;;;;;13.10;7.90;;;;;;;26.72;37.32;99919.95;1741019;81;22614;-77
2021/05/01 07:06:52;;;;;;;10.95;8.38;;;;;;;26.60;37.01;99920.45;1810796;76;22347;-77
2021/05/01 07:09:20;;;;;;;13.53;7.70;;;;;;;26.47;37.56;99919.02;1815837;79;21456;-72
2021/05/01 07:11:48;;;;;;;9.35;7.60;;;;;;;26.28;36.95;99913.91;1813901;78;21417;-73
2021/05/01 07:14:15;;;;;;;13.98;8.40;;;;;;;26.35;36.97;99916.30;1808331;78;21194;-74
2021/05/01 07:16:44;;;;;;;13.28;7.42;;;;;;;26.29;37.07;99912.89;1783338;79;21167;-74
2021/05/01 07:19:13;;;;;;;10.32;7.20;;;;;;;26.22;36.10;99910.51;1784080;79;21126;-74
2021/05/01 07:21:43;;;;;;;11.55;5.78;;;;;;;26.33;36.18;99912.91;1772800;78;21162;-72
2021/05/01 07:24:14;;;;;;;12.20;7.30;;;;;;;26.69;34.21;99916.75;1740859;81;22113;-74
2021/05/01 07:26:43;;;;;;;17.30;12.63;;;;;;;27.15;33.18;99913.08;1716850;83;21667;-72
2021/05/01 07:29:11;;;;;;;13.25;9.85;;;;;;;27.53;30.88;99909.33;1749652;80;21647;-75
2021/05/01 07:31:40;;;;;;;13.55;9.15;;;;;;;27.67;30.96;99901.86;1782951;80;21162;-74
2021/05/01 07:34:12;;;;;;;7.37;5.60;;;;;;;27.79;31.17;99901.84;1779265;80;21202;-78
2021/05/01 07:36:45;;;;;;;5.87;4.12;;;;;;;27.79;29.49;99907.25;1705670;83;22433;-77
2021/05/01 07:39:13;;;;;;;8.78;3.83;;;;;;;27.51;25.40;99911.36;1723107;82;21253;-69
2021/05/01 07:41:44;;;;;;;6.85;3.90;;;;;;;27.47;24.73;99903.25;1703656;84;21641;-69
2021/05/01 07:44:12;;;;;;;6.22;3.52;;;;;;;27.65;25.72;99901.17;1734370;82;21182;-68
2021/05/01 07:46:41;;;;;;;8.35;4.55;;;;;;;27.98;25.69;99909.25;1747886;80;21206;-68
2021/05/01 07:49:10;;;;;;;7.45;4.85;;;;;;;28.33;25.50;99911.13;1703977;84;22257;-70
2021/05/01 07:51:40;;;;;;;8.53;4.17;;;;;;;28.36;25.84;99901.27;1734065;82;21205;-71
2021/05/01 07:54:10;;;;;;;7.15;4.78;;;;;;;28.02;26.45;99913.27;1703791;84;21220;-70
2021/05/01 07:56:40;;;;;;;8.83;5.80;;;;;;;27.51;27.65;99900.55;1734132;82;21182;-70
2021/05/01 07:59:10;;;;;;;7.28;5.00;;;;;;;27.26;28.73;99907.33;1708237;83;21245;-72
2021/05/01 08:01:39;;;;;;;4.83;3.27;;;;;;;26.90;26.55;99900.06;1734172;82;21414;-71
2021/05/01 08:04:08;;;;;;;5.53;3.60;;;;;;;26.63;21.78;99901.20;1733917;82;21254;-71
2021/05/01 08:06:39;;;;;;;7.83;3.50;;;;;;;26.74;22.12;99899.02;1730237;81;21213;-73
2021/05/01 08:09:07;;;;;;;6.85;3.80;;;;;;;27.16;22.25;99906.64;1757987;81;21193;-72
2021/05/01 08:11:37;;;;;;;6.72;3.92;;;;;;;27.09;22.64;99896.17;1746643;81;21204;-74
2021/05/01 08:14:05;;;;;;;8.18;3.10;;;;;;;26.86;21.42;99891.44;1714115;83;21379;-73
2021/05/01 08:16:35;;;;;;;4.95;3.12;;;;;;;26.76;20.58;99904.27;1763163;80;21198;-74
2021/05/01 08:19:04;;;;;;;4.62;3.10;;;;;;;26.87;20.14;99909.35;1757949;80;21178;-73
2021/05/01 08:21:35;;;;;;;6.33;3.17;;;;;;;26.95;20.50;99899.88;1775720;80;21178;-76
2021/05/01 08:24:06;;;;;;;5.45;3.10;;;;;;;27.27;21.05;99910.90;1775991;80;21155;-77
2021/05/01 08:26:34;;;;;;;5.15;3.25;;;;;;;27.51;20.02;99912.71;1766283;80;21492;-77
2021/05/01 08:29:02;;;;;;;5.95;3.12;;;;;;;27.57;21.44;99907.98;1727466;83;21680;-76
2021/05/01 08:31:31;;;;;;;6.45;3.50;;;;;;;27.89;21.29;99911.66;1726600;83;21200;-77
2021/05/01 08:33:59;;;;;;;6.50;3.00;;;;;;;28.02;20.89;99913.27;1721833;82;21645;-79
2021/05/01 08:36:29;;;;;;;4.70;2.87;;;;;;;27.57;20.90;99917.45;1741432;82;21216;-79
2021/05/01 08:38:57;;;;;;;6.17;2.80;;;;;;;27.50;19.16;99913.74;1727839;83;21919;-80
2021/05/01 08:41:25;;;;;;;7.08;3.02;;;;;;;27.49;20.07;99917.45;1708900;83;21149;-80
2021/05/01 08:44:05;;;;;;;9.25;3.20;;;;;;;27.56;20.58;99913.03;1723280;83;21513;-80
2021/05/01 08:46:33;;;;;;;5.03;3.52;;;;;;;27.79;19.26;99919.42;1709440;83;21184;-81
2021/05/01 08:49:08;;;;;;;4.60;3.10;;;;;;;27.85;19.06;99915.72;1692550;84;21247;-79
2021/05/01 08:51:42;;;;;;;8.35;3.25;;;;;;;28.00;19.16;99920.75;1705852;84;21701;-78
2021/05/01 08:54:13;;;;;;;15.50;5.40;;;;;;;27.74;18.79;99923.14;1759547;80;21183;-77
2021/05/01 08:56:43;;;;;;;6.92;3.60;;;;;;;27.51;20.53;99933.00;1752745;80;21218;-78
2021/05/01 08:59:11;;;;;;;9.03;3.92;;;;;;;27.29;20.85;99932.69;1753541;80;21693;-77
2021/05/01 09:01:41;;;;;;;7.22;3.80;;;;;;;27.26;21.51;99928.95;1727575;82;21168;-80
2021/05/01 09:04:11;;;;;;;5.20;4.15;;;;;;;26.95;20.17;99926.91;1709852;83;21232;-78
2021/05/01 09:06:40;;;;;;;5.95;3.08;;;;;;;26.28;22.22;99924.20;1780342;80;26668;-79
2021/05/01 09:09:11;;;;;;;4.72;3.40;;;;;;;25.90;21.77;99926.89;1714982;80;21230;-77
2021/05/01 09:11:46;;;;;;;5.92;3.33;;;;;;;25.61;22.81;99925.36;1762064;79;21206;-78
2021/05/01 09:14:24;;;;;;;7.20;4.03;;;;;;;25.85;22.05;99922.45;1756466;79;21629;-76
2021/05/01 09:17:06;;;;;;;13.03;4.05;;;;;;;26.34;22.28;99930.78;1710940;83;21326;-76
2021/05/01 09:19:41;;;;;;;7.03;3.98;;;;;;;26.77;21.56;99935.15;1761845;80;21210;-79
2021/05/01 09:22:13;;;;;;;7.83;5.30;;;;;;;26.92;21.12;99929.11;1774076;79;21201;-79
2021/05/01 09:24:46;;;;;;;8.23;4.05;;;;;;;26.75;22.48;99928.23;1771940;80;21174;-78
2021/05/01 09:27:16;;;;;;;8.00;4.35;;;;;;;26.55;22.93;99933.94;1775767;79;21175;-76
2021/05/01 09:29:44;;;;;;;11.55;5.78;;;;;;;26.41;23.54;99931.84;1777694;80;21428;-75
2021/05/01 09:32:27;;;;;;;7.67;5.12;;;;;;;26.53;24.22;99928.34;1743468;80;21646;-76
2021/05/01 09:34:55;;;;;;;5.67;4.25;;;;;;;26.76;24.88;99933.47;1703185;84;21496;-75
2021/05/01 09:37:26;;;;;;;5.80;4.15;;;;;;;26.87;23.79;99926.91;1758444;79;21170;-76
2021/05/01 09:39:59;;;;;;;5.28;3.90;;;;;;;26.91;23.35;99930.94;1782753;80;21206;-75
2021/05/01 09:42:30;;;;;;;8.00;3.98;;;;;;;26.95;21.93;99935.01;1774827;80;21370;-74
2021/05/01 09:45:10;;;;;;;8.08;4.03;;;;;;;26.83;22.92;99933.66;1707325;83;21677;-74
2021/05/01 09:47:39;;;;;;;6.67;3.77;;;;;;;26.73;22.58;99932.95;1733324;82;21690;-76
2021/05/01 09:50:22;;;;;;;5.08;3.70;;;;;;;26.58;22.72;99929.55;1695261;84;21922;-74
2021/05/01 09:53:02;;;;;;;6.12;4.10;;;;;;;26.55;22.99;99927.19;1704650;82;21637;-79
2021/05/01 09:55:49;;;;;;;7.37;4.37;;;;;;;26.66;23.68;99927.88;1731033;81;26580;-79
2021/05/01 09:58:27;;;;;;;7.72;3.92;;;;;;;26.80;23.90;99921.81;1726914;82;21234;-77
2021/05/01 10:01:17;;;;;;;6.25;3.60;;;;;;;26.93;22.03;99926.22;1733989;80;21182;-78
2021/05/01 10:03:46;;;;;;;7.00;4.05;;;;;;;26.77;21.52;99926.20;1754290;80;21115;-78
2021/05/01 10:06:18;;;;;;;9.95;4.83;;;;;;;26.63;21.78;99926.35;1754622;80;21156;-77
2021/05/01 10:08:54;;;;;;;7.33;4.35;;;;;;;26.81;22.10;99922.16;1784426;80;21361;-78
2021/05/01 10:11:27;;;;;;;7.80;5.05;;;;;;;26.93;21.69;99920.81;1786231;80;21194;-80
2021/05/01 10:13:56;;;;;;;7.15;4.25;;;;;;;27.10;22.41;99923.52;1736321;80;21182;-79
2021/05/01 10:16:25;;;;;;;5.12;4.28;;;;;;;27.09;22.46;99916.44;1734553;82;21916;-81
2021/05/01 10:21:50;;;;;;;6.08;4.05;;;;;;;26.46;22.89;99910.59;1824179;78;21032;-79
2021/05/01 10:24:18;;;;;;;6.83;4.30;;;;;;;26.16;22.16;99912.86;1787956;77;21164;-76
2021/05/01 10:26:49;;;;;;;4.40;3.67;;;;;;;25.70;22.74;99917.66;1807381;77;21644;-79
2021/05/01 10:29:33;;;;;;;9.23;5.05;;;;;;;25.42;23.84;99919.69;1815655;79;21191;-77
2021/05/01 10:31:58;;;;;;;6.97;4.50;;;;;;;25.03;23.50;99917.33;1809152;77;21582;-77
2021/05/01 10:34:29;;;;;;;8.00;4.55;;;;;;;24.60;24.11;99910.84;1785365;79;21143;-75
2021/05/01 10:36:59;;;;;;;5.22;4.00;;;;;;;24.64;25.16;99908.68;1789300;79;21185;-77
2021/05/01 10:39:27;;;;;;;6.78;4.20;;;;;;;24.85;26.11;99908.41;1790674;77;21410;-77
2021/05/01 10:41:59;;;;;;;10.72;4.42;;;;;;;24.89;25.38;99916.02;1782884;79;21172;-79
2021/05/01 10:44:27;;;;;;;8.70;4.37;;;;;;;25.08;26.07;99912.81;1804665;77;21184;-80
2021/05/01 10:47:13;;;;;;;6.08;4.47;;;;;;;25.37;25.59;99908.50;1798134;77;21614;-80
2021/05/01 10:49:42;;;;;;;5.05;3.70;;;;;;;25.72;24.80;99914.78;1777881;80;21667;-79
2021/05/01 10:52:19;;;;;;;9.83;4.55;;;;;;;26.31;24.16;99906.83;1816085;78;21528;-78
2021/05/01 10:55:04;;;;;;;6.53;4.37;;;;;;;26.79;23.56;99899.88;1810938;79;21610;-78
2021/05/01 10:57:35;;;;;;;6.97;3.58;;;;;;;26.91;22.21;99903.09;1782910;80;21159;-80
2021/05/01 11:00:12;;;;;;;6.47;3.80;;;;;;;26.74;22.19;99905.78;1793987;77;21192;-79
2021/05/01 11:02:44;;;;;;;7.53;4.67;;;;;;;26.46;22.45;99899.80;1811219;79;21191;-79
2021/05/01 11:05:17;;;;;;;13.30;5.03;;;;;;;26.51;22.98;99897.44;1795239;79;22249;-76
2021/05/01 11:07:57;;;;;;;5.15;3.90;;;;;;;26.43;23.41;99900.10;1743649;81;21207;-75
2021/05/01 11:10:25;;;;;;;10.15;4.67;;;;;;;26.52;23.47;99900.46;1734018;82;21223;-74
2021/05/01 11:12:55;;;;;;;5.78;3.42;;;;;;;26.72;23.98;99901.55;1705079;82;21218;-75
2021/05/01 11:15:25;;;;;;;;;;;;;;;27.00;21.77;99898.86;1776195;79;21207;-77
2021/05/01 11:18:06;;;;;;;9.53;3.95;;;;;;;27.21;21.24;99901.59;1752994;79;21379;-76
2021/05/01 11:20:35;;;;;;;5.60;3.72;;;;;;;27.38;21.37;99892.46;1749618;80;21206;-76
2021/05/01 11:23:04;;;;;;;6.78;3.92;;;;;;;27.36;20.69;99895.84;1747603;81;21203;-76
2021/05/01 11:25:33;;;;;;;9.83;4.30;;;;;;;27.03;21.01;99890.08;1748694;81;21247;-76
2021/05/01 11:28:01;;;;;;;14.35;4.60;;;;;;;26.77;21.34;99885.69;1786031;79;21182;-76
2021/05/01 11:30:31;;;;;;;10.70;3.98;;;;;;;26.47;22.27;99886.63;1762637;81;21203;-75
2021/05/01 11:33:02;;;;;;;9.40;4.40;;;;;;;26.25;22.85;99889.45;1762251;81;21211;-76
2021/05/01 11:35:31;;;;;;;9.83;4.25;;;;;;;26.09;23.66;99899.68;1685905;81;21899;-76
2021/05/01 11:38:03;;;;;;;8.60;4.92;;;;;;;25.83;23.27;99897.48;1775666;80;21222;-75
2021/05/01 11:40:34;;;;;;;7.30;5.28;;;;;;;25.61;23.55;99890.81;1788538;80;21214;-77
2021/05/01 11:43:03;;;;;;;8.33;5.30;;;;;;;25.30;24.76;99888.07;1787063;78;22292;-75
2021/05/01 11:45:48;;;;;;;5.92;4.55;;;;;;;25.25;25.35;99887.70;1795474;78;21253;-76